createdAt,value
2022-08-12T00:05:24.979Z,63
2022-08-12T00:10:35.210Z,64
2022-08-12T00:15:47.227Z,65
2022-08-12T00:26:25.227Z,65
2022-08-12T00:31:34.549Z,67
2022-08-12T00:36:51.110Z,67
2022-08-12T00:42:04.367Z,66
2022-08-12T00:47:26.720Z,67
2022-08-12T00:52:37.588Z,67
2022-08-12T00:57:49.329Z,66
2022-08-12T01:03:01.468Z,66
2022-08-12T01:08:13.810Z,70
2022-08-12T01:13:25.922Z,69
2022-08-12T01:18:38.318Z,72
2022-08-12T01:23:50.471Z,72
2022-08-12T01:29:02.559Z,69
2022-08-12T01:34:38.297Z,68
2022-08-12T01:40:46.886Z,68
2022-08-12T01:45:58.258Z,69
2022-08-12T01:51:11.350Z,69
2022-08-12T01:58:02.727Z,69
2022-08-12T02:03:09.679Z,69
2022-08-12T02:08:21.569Z,69
2022-08-12T02:13:50.690Z,68
2022-08-12T02:18:59.506Z,68
2022-08-12T02:24:11.630Z,68
2022-08-12T02:29:23.655Z,69
2022-08-12T02:34:35.740Z,74
2022-08-12T02:39:48.177Z,76
2022-08-12T02:45:00.066Z,76
2022-08-12T02:50:11.983Z,76
2022-08-12T02:55:35.798Z,78
2022-08-12T03:00:45.473Z,76
2022-08-12T03:05:57.770Z,77
2022-08-12T03:11:15.639Z,82
2022-08-12T03:16:38.629Z,82
2022-08-12T03:22:10.326Z,83
2022-08-12T03:27:19.370Z,84
2022-08-12T03:32:46.685Z,84
2022-08-12T03:37:56.211Z,80
2022-08-12T03:43:12.910Z,76
2022-08-12T03:48:25.269Z,77
2022-08-12T03:53:37.361Z,75
2022-08-12T03:58:49.451Z,76
2022-08-12T04:04:01.610Z,89
2022-08-12T04:09:17.511Z,92
2022-08-12T04:14:31.083Z,91
2022-08-12T04:19:43.062Z,89
2022-08-12T04:24:55.137Z,89
2022-08-12T04:30:34.236Z,86
2022-08-12T04:35:42.097Z,86
2022-08-12T04:40:53.960Z,88
2022-08-12T04:46:05.869Z,86
2022-08-12T04:51:17.951Z,86
2022-08-12T04:56:36.356Z,85
2022-08-12T05:01:52.559Z,85
2022-08-12T05:07:04.447Z,88
2022-08-12T05:12:16.458Z,87
2022-08-12T05:17:30.497Z,86
2022-08-12T05:22:43.731Z,86
2022-08-12T05:28:00.036Z,86
2022-08-12T05:33:12.436Z,86
2022-08-12T05:38:24.592Z,86
2022-08-12T05:43:36.955Z,84
2022-08-12T05:48:49.233Z,81
2022-08-12T05:54:01.485Z,80
2022-08-12T05:59:13.854Z,80
2022-08-12T06:04:26.363Z,76
2022-08-12T06:09:38.744Z,76
2022-08-12T06:14:51.105Z,76
2022-08-12T06:20:34.810Z,81
2022-08-12T06:25:42.460Z,72
2022-08-12T06:31:27.814Z,71
2022-08-12T06:36:37.372Z,70
2022-08-12T06:42:34.116Z,71
2022-08-12T06:47:40.677Z,78
2022-08-12T06:52:52.579Z,91
2022-08-12T06:58:11.327Z,80
2022-08-12T07:03:25.369Z,75
2022-08-12T07:08:37.333Z,68
2022-08-12T07:14:14.038Z,71
2022-08-12T07:19:23.021Z,73
2022-08-12T07:24:35.165Z,79
2022-08-12T07:30:05.997Z,84
2022-08-12T07:40:24.585Z,89
2022-08-12T07:45:37.022Z,89
2022-08-12T07:50:49.460Z,89
2022-08-12T07:56:02.534Z,90
2022-08-12T08:01:15.043Z,87
2022-08-12T08:06:27.577Z,84
2022-08-12T08:11:39.986Z,80
2022-08-12T08:16:52.292Z,79
2022-08-12T08:22:04.564Z,78
2022-08-12T08:27:16.892Z,78
2022-08-12T08:32:30.223Z,77
2022-08-12T08:37:43.465Z,74
2022-08-12T08:42:55.515Z,74
2022-08-12T08:48:07.994Z,77
2022-08-12T08:53:20.453Z,74
2022-08-12T08:58:33.354Z,72
2022-08-12T09:05:26.097Z,72
2022-08-12T09:10:33.503Z,70
2022-08-12T09:16:00.197Z,67
2022-08-12T09:21:10.684Z,63
2022-08-12T09:26:29.638Z,60
2022-08-12T09:32:56.910Z,59
2022-08-12T09:42:53.994Z,60
2022-08-12T09:54:36.537Z,57
2022-08-12T10:00:48.527Z,57
2022-08-12T10:06:57.709Z,55
2022-08-12T10:12:13.806Z,55
2022-08-12T10:17:24.426Z,53
2022-08-12T10:22:41.971Z,54
2022-08-12T10:28:25.530Z,51
2022-08-12T10:34:14.441Z,50
2022-08-12T10:40:21.216Z,51
2022-08-12T10:55:57.140Z,49
2022-08-12T11:04:45.701Z,47
2022-08-12T11:10:03.792Z,46
2022-08-12T11:16:23.508Z,46
2022-08-12T11:32:03.758Z,45
2022-08-12T11:37:27.544Z,44
2022-08-12T11:42:48.525Z,40
2022-08-12T11:48:03.105Z,38
2022-08-12T11:54:02.089Z,36
2022-08-12T12:07:16.313Z,37
2022-08-12T12:17:39.480Z,40
2022-08-12T12:28:07.059Z,40
2022-08-12T12:33:21.495Z,38
2022-08-12T13:04:38.041Z,43
2022-08-12T13:14:58.156Z,44
2022-08-12T13:20:11.207Z,41
2022-08-12T13:41:23.344Z,44
2022-08-12T13:46:37.114Z,43
2022-08-12T13:51:49.726Z,41
2022-08-12T13:57:17.452Z,42
2022-08-12T14:02:27.692Z,42
2022-08-12T14:07:50.177Z,41
2022-08-12T14:13:02.909Z,41
2022-08-12T14:19:54.358Z,40
2022-08-12T14:25:07.966Z,40
2022-08-12T14:35:48.967Z,40
2022-08-12T14:55:47.151Z,43
2022-08-12T15:02:45.197Z,42
2022-08-12T15:08:09.409Z,42
2022-08-12T15:13:21.787Z,43
2022-08-12T15:18:38.276Z,43
2022-08-12T15:29:00.945Z,44
2022-08-12T15:34:13.701Z,44
2022-08-12T15:50:05.994Z,46
2022-08-12T15:55:22.130Z,47
2022-08-12T16:00:34.849Z,46
2022-08-12T16:16:26.490Z,47
2022-08-12T16:21:59.683Z,46
2022-08-12T16:27:08.460Z,46
2022-08-12T16:38:29.259Z,47
2022-08-12T16:43:36.659Z,46
2022-08-12T16:48:50.151Z,45
2022-08-12T16:54:02.558Z,44
2022-08-12T16:59:20.362Z,44
2022-08-12T17:04:33.624Z,44
2022-08-12T17:09:46.034Z,44
2022-08-12T17:25:19.630Z,46
2022-08-12T17:40:57.072Z,45
2022-08-12T17:46:34.267Z,45
2022-08-12T17:52:03.514Z,46
2022-08-12T18:07:44.364Z,48
2022-08-12T18:18:20.206Z,49
2022-08-12T18:23:32.197Z,49
2022-08-12T18:28:43.591Z,50
2022-08-12T18:34:03.525Z,50
2022-08-12T18:39:21.440Z,51
2022-08-12T18:44:34.504Z,52
2022-08-12T18:49:49.919Z,52
2022-08-12T18:55:11.857Z,52
2022-08-12T19:00:25.903Z,52
2022-08-12T19:05:55.792Z,53
2022-08-12T19:11:10.598Z,53
2022-08-12T19:16:25.630Z,53
2022-08-12T19:21:38.329Z,53
2022-08-12T19:26:59.417Z,56
2022-08-12T19:47:48.248Z,78
2022-08-12T19:53:00.425Z,74
2022-08-12T19:58:21.306Z,74
2022-08-12T20:03:42.365Z,76
2022-08-12T20:09:06.062Z,79
2022-08-12T20:14:21.355Z,75
2022-08-12T20:20:35.603Z,68
2022-08-12T20:26:10.801Z,62
2022-08-12T20:31:22.062Z,61
2022-08-12T20:36:45.849Z,58
2022-08-12T20:42:15.625Z,49
2022-08-12T20:48:04.921Z,50
2022-08-12T20:53:59.535Z,50
2022-08-12T20:59:07.830Z,51
2022-08-12T21:04:22.121Z,52
2022-08-12T21:09:42.941Z,52
2022-08-12T21:15:54.597Z,53
2022-08-12T21:21:24.575Z,53
2022-08-12T21:27:03.384Z,55
2022-08-12T21:32:41.907Z,53
2022-08-12T21:37:54.148Z,51
2022-08-12T21:43:10.133Z,52
2022-08-12T21:48:22.889Z,52
2022-08-12T21:54:21.579Z,51
2022-08-12T21:59:31.902Z,49
2022-08-12T22:04:58.760Z,50
2022-08-12T22:10:13.634Z,51
2022-08-12T22:15:29.599Z,53
2022-08-12T22:20:48.005Z,55
2022-08-12T22:26:07.279Z,55
2022-08-12T22:31:20.539Z,63
2022-08-12T22:36:34.194Z,73
2022-08-12T22:41:46.879Z,80
2022-08-12T22:47:08.918Z,81
2022-08-12T22:52:25.006Z,81
2022-08-12T22:57:55.924Z,78
2022-08-12T23:03:50.525Z,28
2022-08-12T23:19:24.030Z,1
2022-08-12T23:25:00.746Z,0
2022-08-12T23:30:39.128Z,0
2022-08-12T23:36:04.347Z,0
2022-08-12T23:41:14.807Z,0
2022-08-12T23:46:27.656Z,0
2022-08-12T23:51:40.180Z,0
2022-08-12T23:56:52.296Z,0
